Time;durP1;ratioP1;P1;durP2;ratioP2;P2;SDS_P1;SDS_P2;PMS_P1;PMS_P2;Temp;Humidity;BMP_temperature;BMP_pressure;BME280_temperature;BME280_humidity;BME280_pressure;Samples;Min_cycle;Max_cycle;Signal;HPM_P1;HPM_P2
2023/12/29 00:03:55;;;;;;;6.47;3.72;;;;;;;8.77;100.00;99685.81;12187398;19;20002;-79
2023/12/29 00:07:57;;;;;;;7.95;4.47;;;;;;;8.74;100.00;99682.72;12203425;19;20541;-78
2023/12/29 00:11:59;;;;;;;9.63;4.00;;;;;;;8.63;100.00;99685.25;12213098;19;20002;-80
2023/12/29 00:16:01;;;;;;;8.48;4.60;;;;;;;8.56;100.00;99676.28;12184951;19;20011;-79
2023/12/29 00:20:04;;;;;;;8.38;5.15;;;;;;;8.52;100.00;99668.78;12204029;19;20014;-79
2023/12/29 00:24:06;;;;;;;6.88;4.38;;;;;;;8.44;100.00;99668.06;12187600;19;20010;-80
2023/12/29 00:28:08;;;;;;;10.45;5.53;;;;;;;8.36;100.00;99664.84;12206191;19;20027;-79
2023/12/29 00:32:10;;;;;;;11.68;5.47;;;;;;;8.33;100.00;99651.56;12209126;19;20027;-80
2023/12/29 00:36:16;;;;;;;10.38;5.22;;;;;;;8.33;100.00;99644.19;12181371;19;20036;-79
2023/12/29 00:40:17;;;;;;;8.85;4.85;;;;;;;8.35;100.00;99652.16;12205467;19;20007;-80
2023/12/29 00:44:23;;;;;;;9.97;5.67;;;;;;;8.41;100.00;99656.72;12204460;19;21201;-80
2023/12/29 00:48:25;;;;;;;10.77;5.15;;;;;;;8.33;100.00;99646.06;12185107;19;20018;-81
2023/12/29 00:52:28;;;;;;;9.83;5.07;;;;;;;8.27;100.00;99636.03;12204178;19;20065;-79
2023/12/29 00:56:29;;;;;;;7.72;4.57;;;;;;;8.27;100.00;99642.41;12207225;19;20362;-79
2023/12/29 01:00:31;;;;;;;13.68;5.78;;;;;;;8.31;100.00;99634.50;12185778;19;20027;-79
2023/12/29 01:04:38;;;;;;;9.05;4.72;;;;;;;8.31;100.00;99634.50;12213487;19;20010;-79
2023/12/29 01:08:41;;;;;;;8.90;5.72;;;;;;;8.22;100.00;99634.88;12257152;19;20011;-79
2023/12/29 01:12:43;;;;;;;8.70;4.38;;;;;;;8.17;100.00;99629.25;12239530;19;20002;-79
2023/12/29 01:16:45;;;;;;;11.50;4.47;;;;;;;8.15;100.00;99634.16;12245330;19;20035;-78
2023/12/29 01:20:46;;;;;;;8.60;3.67;;;;;;;8.14;100.00;99626.97;12196915;19;20019;-80
2023/12/29 01:24:48;;;;;;;6.40;3.33;;;;;;;8.25;100.00;99613.50;12179920;19;21877;-78
2023/12/29 01:28:50;;;;;;;5.18;2.47;;;;;;;8.35;100.00;99622.78;12196411;19;20010;-78
2023/12/29 01:32:52;;;;;;;5.80;3.08;;;;;;;8.39;100.00;99626.78;12202271;19;20007;-79
2023/12/29 01:36:54;;;;;;;7.87;3.00;;;;;;;8.49;100.00;99637.16;12176988;19;20014;-79
2023/12/29 01:40:56;;;;;;;5.07;3.15;;;;;;;8.51;100.00;99631.44;12200222;19;20730;-80
2023/12/29 01:44:58;;;;;;;6.88;3.13;;;;;;;8.53;100.00;99612.78;12202516;19;20007;-79
2023/12/29 01:49:01;;;;;;;7.57;2.92;;;;;;;8.57;100.00;99612.06;12179582;19;20023;-80
2023/12/29 01:53:04;;;;;;;7.43;2.47;;;;;;;8.60;100.00;99619.81;12213841;19;20010;-81
2023/12/29 01:57:09;;;;;;;4.43;2.65;;;;;;;8.63;100.00;99621.25;12211369;19;20018;-81
2023/12/29 02:01:11;;;;;;;6.20;2.92;;;;;;;8.59;100.00;99617.31;12215671;19;20007;-80
2023/12/29 02:05:17;;;;;;;5.38;3.33;;;;;;;8.64;100.00;99604.53;12215815;19;20014;-79
2023/12/29 02:09:19;;;;;;;5.75;3.03;;;;;;;8.81;100.00;99598.28;12182638;19;20014;-79
2023/12/29 02:13:22;;;;;;;9.60;3.60;;;;;;;8.90;100.00;99602.31;12213310;19;20010;-79
2023/12/29 02:17:29;;;;;;;7.40;3.42;;;;;;;8.93;100.00;99601.81;12205542;19;20007;-80
2023/12/29 02:21:30;;;;;;;6.30;3.47;;;;;;;8.98;100.00;99596.41;12189227;19;20013;-81
2023/12/29 02:25:33;;;;;;;6.07;3.72;;;;;;;8.96;100.00;99582.09;12209962;19;20406;-80
2023/12/29 02:29:38;;;;;;;8.43;4.07;;;;;;;8.87;100.00;99591.81;12206557;19;20007;-79
2023/12/29 02:33:42;;;;;;;7.47;3.63;;;;;;;8.95;100.00;99596.06;12185306;19;20050;-80
2023/12/29 02:37:46;;;;;;;6.65;3.92;;;;;;;8.97;100.00;99591.16;12204994;19;20014;-80
2023/12/29 02:41:47;;;;;;;;;;;;;;;8.96;100.00;99595.84;12208712;19;20572;-79
2023/12/29 02:45:49;;;;;;;8.45;4.18;;;;;;;9.02;100.00;99583.88;12188649;19;19934;-81
2023/12/29 02:49:51;;;;;;;8.47;3.43;;;;;;;9.06;100.00;99587.78;12209192;19;20002;-80
2023/12/29 02:53:53;;;;;;;6.47;3.42;;;;;;;9.19;100.00;99583.06;12204164;19;20031;-80
2023/12/29 02:57:55;;;;;;;5.95;3.00;;;;;;;9.23;100.00;99593.34;12169919;19;20007;-81
2023/12/29 03:01:56;;;;;;;6.45;2.75;;;;;;;9.18;100.00;99595.16;12202466;19;20011;-81
2023/12/29 03:05:58;;;;;;;7.15;2.88;;;;;;;9.23;100.00;99592.50;12207026;19;20043;-82
2023/12/29 03:10:00;;;;;;;3.22;2.13;;;;;;;9.22;100.00;99597.19;12186835;19;20082;-81
2023/12/29 03:14:02;;;;;;;4.03;2.33;;;;;;;9.22;100.00;99613.66;12208355;19;20019;-80
2023/12/29 03:18:04;;;;;;;5.32;2.50;;;;;;;9.18;100.00;99603.41;12202956;19;20884;-81
2023/12/29 03:22:07;;;;;;;6.28;2.55;;;;;;;9.16;100.00;99603.66;12181558;19;20011;-81
2023/12/29 03:26:08;;;;;;;2.60;1.90;;;;;;;9.19;100.00;99596.81;12205907;19;20039;-82
2023/12/29 03:30:11;;;;;;;3.28;2.13;;;;;;;9.16;100.00;99591.81;12207583;19;20416;-81
2023/12/29 03:34:13;;;;;;;7.78;2.53;;;;;;;9.07;100.00;99583.13;12185327;19;20911;-82
2023/12/29 03:38:15;;;;;;;4.30;2.20;;;;;;;8.98;100.00;99590.09;12199003;19;20014;-81
2023/12/29 03:42:17;;;;;;;7.40;1.95;;;;;;;9.00;100.00;99591.50;12208534;19;20035;-83
2023/12/29 03:46:20;;;;;;;4.18;1.98;;;;;;;9.03;100.00;99582.78;12181715;19;20070;-79
2023/12/29 03:50:22;;;;;;;3.67;1.63;;;;;;;9.02;100.00;99555.56;12203520;19;20015;-80
2023/12/29 03:54:24;;;;;;;3.88;1.50;;;;;;;9.00;100.00;99558.53;12209530;19;20015;-82
2023/12/29 03:58:26;;;;;;;3.73;1.70;;;;;;;8.96;100.00;99549.13;12181776;19;20041;-83
2023/12/29 04:02:28;;;;;;;2.90;1.80;;;;;;;8.99;100.00;99543.13;12208655;19;20067;-81
2023/12/29 04:06:30;;;;;;;5.78;1.65;;;;;;;8.94;100.00;99542.19;12205748;19;20011;-78
2023/12/29 04:10:31;;;;;;;2.70;1.60;;;;;;;8.95;100.00;99541.09;12186631;19;20039;-78
2023/12/29 04:14:33;;;;;;;2.67;1.38;;;;;;;8.86;100.00;99532.41;12212231;19;20653;-78
2023/12/29 04:18:35;;;;;;;3.95;1.92;;;;;;;8.78;100.00;99535.59;12231359;19;20014;-77
2023/12/29 04:22:37;;;;;;;3.20;1.92;;;;;;;8.72;100.00;99536.56;12226197;19;20576;-77
2023/12/29 04:26:39;;;;;;;7.75;2.45;;;;;;;8.63;100.00;99538.84;12245459;19;20029;-78
2023/12/29 04:30:40;;;;;;;4.93;2.40;;;;;;;8.57;100.00;99539.84;12224396;19;20551;-79
2023/12/29 04:34:42;;;;;;;4.93;1.97;;;;;;;8.51;100.00;99535.31;12207057;19;20059;-78
2023/12/29 04:38:44;;;;;;;8.40;2.58;;;;;;;8.49;100.00;99527.31;12200018;19;20014;-78
2023/12/29 04:42:46;;;;;;;4.20;2.67;;;;;;;8.48;100.00;99527.53;12179495;19;20010;-78
2023/12/29 04:46:48;;;;;;;5.70;2.35;;;;;;;8.42;100.00;99527.44;12201550;19;20007;-79
2023/12/29 04:50:52;;;;;;;6.50;2.78;;;;;;;8.43;100.00;99528.28;12198690;19;20006;-79
2023/12/29 04:54:54;;;;;;;3.92;2.22;;;;;;;8.41;100.00;99524.94;12178247;19;20007;-78
2023/12/29 04:58:56;;;;;;;4.22;2.03;;;;;;;8.40;100.00;99510.38;12196752;19;20472;-79
2023/12/29 05:02:58;;;;;;;5.20;2.00;;;;;;;8.35;100.00;99523.97;12200722;19;20066;-79
2023/12/29 05:07:00;;;;;;;3.72;2.00;;;;;;;8.40;100.00;99528.75;12178397;19;20799;-80
2023/12/29 05:11:02;;;;;;;2.92;2.00;;;;;;;8.41;100.00;99542.22;12201028;19;20007;-81
2023/12/29 05:15:05;;;;;;;5.22;2.17;;;;;;;8.44;100.00;99543.66;12199345;19;20524;-81
2023/12/29 05:19:07;;;;;;;8.70;2.40;;;;;;;8.48;100.00;99552.25;12176954;19;20023;-80
2023/12/29 05:23:08;;;;;;;4.15;1.90;;;;;;;8.55;100.00;99561.19;12200113;19;20011;-80
2023/12/29 05:27:11;;;;;;;4.40;1.73;;;;;;;8.59;100.00;99543.16;12201155;19;20006;-80
2023/12/29 05:31:12;;;;;;;2.70;1.80;;;;;;;8.69;100.00;99534.31;12180517;19;20027;-80
2023/12/29 05:35:14;;;;;;;4.32;2.05;;;;;;;8.64;100.00;99533.09;12199451;19;20172;-80
2023/12/29 05:39:16;;;;;;;2.80;1.58;;;;;;;8.74;100.00;99517.91;12199542;19;20006;-81
2023/12/29 05:43:18;;;;;;;2.15;1.50;;;;;;;8.71;100.00;99521.13;12176988;19;20378;-80
2023/12/29 05:47:20;;;;;;;3.37;2.00;;;;;;;8.78;100.00;99519.94;12201522;19;20039;-82
2023/12/29 05:51:22;;;;;;;4.53;1.38;;;;;;;8.72;100.00;99518.16;12207208;19;20259;-81
2023/12/29 05:55:24;;;;;;;4.25;1.70;;;;;;;8.76;100.00;99526.75;12217522;19;20003;-79
2023/12/29 05:59:25;;;;;;;3.50;1.40;;;;;;;8.74;100.00;99515.16;12248786;19;20038;-80
2023/12/29 06:03:27;;;;;;;2.42;1.45;;;;;;;8.74;100.00;99513.25;12247075;19;20616;-79
2023/12/29 06:07:29;;;;;;;4.05;1.77;;;;;;;8.79;100.00;99510.59;12184243;19;20009;-79
2023/12/29 06:11:31;;;;;;;3.58;1.80;;;;;;;8.81;100.00;99511.19;12247803;19;20021;-78
2023/12/29 06:15:32;;;;;;;3.90;1.67;;;;;;;8.86;100.00;99525.03;12245460;19;20016;-78
2023/12/29 06:19:35;;;;;;;5.60;2.05;;;;;;;8.97;100.00;99527.97;12222907;19;20007;-77
2023/12/29 06:23:37;;;;;;;5.82;2.33;;;;;;;8.99;100.00;99534.88;12224057;19;20031;-80
2023/12/29 06:27:40;;;;;;;5.50;2.95;;;;;;;9.01;100.00;99524.50;12204768;19;20608;-80
2023/12/29 06:31:42;;;;;;;6.68;3.40;;;;;;;9.00;100.00;99517.31;12185304;19;20002;-80
2023/12/29 06:35:44;;;;;;;6.80;3.58;;;;;;;8.96;100.00;99509.81;12211977;19;20010;-80
2023/12/29 06:39:46;;;;;;;6.10;3.17;;;;;;;8.94;100.00;99504.56;12194272;19;20007;-78
2023/12/29 06:43:48;;;;;;;6.90;3.60;;;;;;;8.93;100.00;99504.81;12212326;19;20038;-79
2023/12/29 06:47:50;;;;;;;6.22;3.38;;;;;;;8.92;100.00;99514.94;12216095;19;20014;-80
2023/12/29 06:51:51;;;;;;;6.10;3.72;;;;;;;8.94;100.00;99522.97;12189905;19;20438;-79
2023/12/29 06:55:53;;;;;;;5.82;2.97;;;;;;;9.00;100.00;99528.31;12204407;19;20021;-81
2023/12/29 06:59:55;;;;;;;6.18;3.22;;;;;;;9.02;100.00;99530.81;12199103;19;20031;-79
2023/12/29 07:03:57;;;;;;;4.77;1.57;;;;;;;9.11;100.00;99527.41;12160253;19;20021;-80
2023/12/29 07:07:59;;;;;;;6.72;3.35;;;;;;;9.20;100.00;99533.34;12208228;19;20014;-79
2023/12/29 07:12:01;;;;;;;6.95;2.78;;;;;;;9.25;100.00;99532.59;12213461;19;20055;-80
2023/12/29 07:16:04;;;;;;;5.68;2.85;;;;;;;9.26;100.00;99532.34;12187392;19;20014;-80
2023/12/29 07:20:07;;;;;;;6.45;2.88;;;;;;;9.25;100.00;99535.34;12209592;19;20022;-80
2023/12/29 07:24:09;;;;;;;6.53;2.63;;;;;;;9.21;100.00;99535.00;12215572;19;20027;-79
2023/12/29 07:28:11;;;;;;;5.75;2.80;;;;;;;9.15;100.00;99533.25;12193763;19;20019;-80
2023/12/29 07:32:13;;;;;;;6.45;3.10;;;;;;;9.15;100.00;99535.16;12217824;19;20031;-78
2023/12/29 07:36:16;;;;;;;6.63;2.60;;;;;;;9.14;100.00;99526.09;12234703;19;19995;-78
2023/12/29 07:40:19;;;;;;;6.95;2.60;;;;;;;9.13;100.00;99532.66;12206778;19;20018;-80
2023/12/29 07:44:21;;;;;;;5.07;1.98;;;;;;;9.21;100.00;99539.66;12233212;19;20010;-79
2023/12/29 07:48:23;;;;;;;3.33;2.17;;;;;;;9.38;100.00;99546.03;12209647;19;20006;-79
2023/12/29 07:52:25;;;;;;;4.00;1.83;;;;;;;9.51;100.00;99544.88;12194284;19;20006;-80
2023/12/29 07:56:27;;;;;;;4.03;2.20;;;;;;;9.62;100.00;99556.88;12212157;19;22055;-80
2023/12/29 08:00:28;;;;;;;3.17;1.92;;;;;;;9.72;100.00;99552.34;12215067;19;20018;-78
2023/12/29 08:04:30;;;;;;;6.22;1.67;;;;;;;9.87;100.00;99562.78;12194500;19;20403;-80
2023/12/29 08:08:32;;;;;;;4.23;1.70;;;;;;;9.94;100.00;99570.88;12216410;19;20010;-79
2023/12/29 08:12:35;;;;;;;2.95;1.55;;;;;;;10.03;100.00;99572.94;12224913;19;20006;-78
2023/12/29 08:16:40;;;;;;;4.07;1.20;;;;;;;10.12;100.00;99578.03;12239238;19;20017;-80
2023/12/29 08:20:42;;;;;;;2.63;1.10;;;;;;;10.30;100.00;99576.94;12264867;19;20039;-78
2023/12/29 08:24:43;;;;;;;5.22;1.63;;;;;;;10.38;100.00;99571.84;12246812;19;19999;-81
2023/12/29 08:28:45;;;;;;;4.15;0.98;;;;;;;10.49;100.00;99567.28;12189245;19;20011;-79
2023/12/29 08:32:47;;;;;;;3.35;1.80;;;;;;;10.63;100.00;99578.78;12209729;19;20011;-78
2023/12/29 08:36:49;;;;;;;1.73;1.05;;;;;;;10.73;100.00;99579.72;12207782;19;20793;-78
2023/12/29 08:40:51;;;;;;;1.67;1.13;;;;;;;10.84;98.99;99579.84;12191315;19;20092;-81
2023/12/29 08:44:52;;;;;;;2.00;0.90;;;;;;;10.98;99.68;99580.31;12209670;19;20007;-81
2023/12/29 08:48:54;;;;;;;3.08;1.02;;;;;;;10.97;97.79;99584.97;12210626;19;20018;-81
2023/12/29 08:52:56;;;;;;;1.15;0.80;;;;;;;11.02;95.71;99589.72;12187757;19;20015;-81
2023/12/29 08:56:58;;;;;;;1.45;0.80;;;;;;;11.17;95.67;99576.91;12206116;19;20014;-79
2023/12/29 09:00:59;;;;;;;2.80;1.10;;;;;;;11.23;94.53;99572.28;12185221;19;20601;-82
2023/12/29 09:05:01;;;;;;;1.63;0.90;;;;;;;11.25;94.29;99570.13;12205414;19;20030;-80
2023/12/29 09:09:03;;;;;;;3.78;0.85;;;;;;;11.35;93.77;99566.63;12201031;19;20030;-79
2023/12/29 09:13:05;;;;;;;2.35;0.90;;;;;;;11.44;92.83;99567.81;12183840;19;20023;-79
2023/12/29 09:17:07;;;;;;;2.23;1.00;;;;;;;11.55;92.34;99572.34;12202684;19;20002;-80
2023/12/29 09:21:09;;;;;;;1.92;0.80;;;;;;;11.48;91.58;99570.88;12198321;19;20014;-81
2023/12/29 09:25:11;;;;;;;5.07;0.85;;;;;;;11.55;91.41;99577.03;12180291;19;20017;-80
2023/12/29 09:29:12;;;;;;;3.23;0.90;;;;;;;11.63;92.23;99568.28;12201001;19;20015;-80
2023/12/29 09:33:14;;;;;;;2.38;0.93;;;;;;;11.74;92.18;99583.81;12203893;19;20003;-79
2023/12/29 09:37:17;;;;;;;3.00;1.10;;;;;;;11.71;93.27;99578.81;12176617;19;20070;-80
2023/12/29 09:41:23;;;;;;;5.68;1.90;;;;;;;11.72;94.59;99574.13;12201746;19;20006;-80
2023/12/29 09:45:25;;;;;;;4.75;1.45;;;;;;;11.80;94.69;99570.88;12198462;19;20021;-79
2023/12/29 09:49:36;;;;;;;3.38;1.50;;;;;;;11.98;94.60;99572.44;12175963;19;20442;-79
2023/12/29 09:53:40;;;;;;;3.35;1.42;;;;;;;11.93;93.86;99577.91;12198368;19;20031;-80
2023/12/29 09:57:42;;;;;;;2.60;1.23;;;;;;;11.98;94.42;99575.19;12195736;19;20006;-82
2023/12/29 10:01:46;;;;;;;4.82;2.15;;;;;;;11.98;95.23;99569.66;12175927;19;20023;-81
2023/12/29 10:05:51;;;;;;;3.13;1.50;;;;;;;11.94;95.59;99561.09;12195425;19;20038;-80
2023/12/29 10:09:56;;;;;;;5.72;2.28;;;;;;;11.99;96.47;99566.66;12207153;19;20007;-79
2023/12/29 10:14:02;;;;;;;4.05;1.85;;;;;;;11.79;97.85;99559.00;12214399;19;20016;-81
2023/12/29 10:18:41;;;;;;;4.03;1.80;;;;;;;11.70;99.86;99562.53;12220440;19;20019;-81
2023/12/29 10:23:08;;;;;;;3.72;1.90;;;;;;;11.60;100.00;99560.50;12211362;19;20006;-82
2023/12/29 10:27:10;;;;;;;5.35;2.05;;;;;;;11.65;100.00;99552.25;12238482;19;20014;-80
2023/12/29 10:31:15;;;;;;;4.20;2.20;;;;;;;11.64;100.00;99550.63;12223598;19;20021;-80
2023/12/29 10:35:19;;;;;;;3.55;1.67;;;;;;;11.68;100.00;99557.25;12217133;19;20021;-79
2023/12/29 10:39:21;;;;;;;4.15;2.05;;;;;;;11.66;100.00;99551.19;12216035;19;20021;-78
2023/12/29 10:43:23;;;;;;;3.88;2.03;;;;;;;11.70;100.00;99555.06;12196108;19;20023;-79
2023/12/29 10:47:25;;;;;;;3.15;1.88;;;;;;;11.61;100.00;99557.50;12214003;19;20153;-80
2023/12/29 10:51:30;;;;;;;3.55;1.58;;;;;;;11.66;100.00;99561.38;12211510;19;20011;-80
2023/12/29 10:55:32;;;;;;;1.55;0.90;;;;;;;11.76;96.47;99559.53;12193826;19;20014;-81
2023/12/29 10:59:34;;;;;;;2.47;0.85;;;;;;;11.81;93.30;99559.59;12209088;19;20006;-79
2023/12/29 11:03:36;;;;;;;2.47;1.07;;;;;;;11.90;93.82;99545.31;12210595;19;20026;-79
2023/12/29 11:07:41;;;;;;;2.05;1.05;;;;;;;11.85;92.52;99563.50;12185459;19;20506;-80
2023/12/29 11:11:43;;;;;;;1.77;0.90;;;;;;;11.95;92.56;99553.63;12209724;19;20019;-80
2023/12/29 11:15:46;;;;;;;2.00;0.68;;;;;;;11.98;91.82;99564.16;12210966;19;20006;-80
2023/12/29 11:19:48;;;;;;;;;;;;;;;12.10;90.45;99556.50;12176136;19;20010;-79
2023/12/29 11:23:50;;;;;;;3.03;1.07;;;;;;;12.12;90.81;99557.06;12208182;19;20635;-78
2023/12/29 11:27:53;;;;;;;2.25;1.77;;;;;;;12.11;90.06;99560.94;12205843;19;20105;-80
2023/12/29 11:31:59;;;;;;;2.85;1.27;;;;;;;12.20;90.23;99567.63;12187374;19;20082;-78
2023/12/29 11:36:16;;;;;;;3.70;1.10;;;;;;;12.16;88.71;99574.75;12207926;19;20462;-79
2023/12/29 11:40:54;;;;;;;1.10;0.60;;;;;;;12.21;88.58;99571.22;12183942;19;20010;-79
2023/12/29 11:44:55;;;;;;;1.65;0.75;;;;;;;12.15;87.76;99567.59;12201514;19;20006;-82
2023/12/29 11:48:58;;;;;;;2.80;1.30;;;;;;;12.17;88.25;99570.94;12190645;19;20018;-79
2023/12/29 11:53:01;;;;;;;3.15;1.23;;;;;;;12.23;86.51;99569.03;12211001;19;20018;-80
2023/12/29 11:57:07;;;;;;;3.55;0.90;;;;;;;12.21;86.02;99569.28;12204449;19;20074;-78
2023/12/29 12:01:10;;;;;;;2.78;1.00;;;;;;;12.25;87.18;99567.63;12183173;19;20023;-79
2023/12/29 12:05:12;;;;;;;;;;;;;;;12.17;87.14;99554.34;12193166;19;20022;-78
2023/12/29 12:09:27;;;;;;;1.65;0.90;;;;;;;12.23;86.69;99547.75;12203260;19;19918;-80
2023/12/29 12:13:45;;;;;;;2.33;0.80;;;;;;;12.29;85.98;99545.84;12184862;19;20505;-79
2023/12/29 12:17:50;;;;;;;2.63;0.80;;;;;;;12.38;86.98;99532.38;12203453;19;20011;-80
2023/12/29 12:21:53;;;;;;;2.78;0.98;;;;;;;12.48;86.36;99526.88;12202926;19;20029;-80
2023/12/29 12:26:01;;;;;;;4.90;1.13;;;;;;;12.50;85.36;99519.16;12183601;19;20026;-79
2023/12/29 12:30:03;;;;;;;3.72;0.70;;;;;;;12.52;85.32;99522.47;12203145;19;20359;-81
2023/12/29 12:34:06;;;;;;;2.67;0.85;;;;;;;12.52;84.45;99511.41;12180410;19;20010;-79
2023/12/29 12:38:24;;;;;;;1.52;0.80;;;;;;;12.71;83.80;99515.38;12200201;19;20062;-81
2023/12/29 12:42:26;;;;;;;1.48;0.73;;;;;;;12.85;83.26;99504.63;12201095;19;20660;-81
2023/12/29 12:46:34;;;;;;;3.80;0.95;;;;;;;12.87;82.51;99512.66;12176020;19;20011;-79
2023/12/29 12:50:36;;;;;;;1.65;1.00;;;;;;;12.87;82.52;99513.47;12200909;19;20022;-80
2023/12/29 12:54:38;;;;;;;2.37;0.83;;;;;;;12.84;82.44;99496.59;12205504;19;20010;-84
2023/12/29 12:58:40;;;;;;;3.35;0.82;;;;;;;12.92;82.28;99498.84;12181051;19;20006;-79
2023/12/29 13:02:46;;;;;;;1.40;0.77;;;;;;;12.93;82.35;99481.97;12206481;19;20401;-80
2023/12/29 13:06:48;;;;;;;4.05;0.70;;;;;;;12.88;82.74;99494.94;12209369;19;20342;-81
2023/12/29 13:10:53;;;;;;;2.45;0.80;;;;;;;12.89;81.91;99500.22;12174969;19;20034;-82
2023/12/29 13:15:05;;;;;;;0.90;0.70;;;;;;;12.73;82.54;99480.00;12201463;19;20006;-78
2023/12/29 13:19:18;;;;;;;1.70;0.85;;;;;;;12.75;83.69;99488.81;12184687;19;20268;-78
2023/12/29 13:23:20;;;;;;;2.50;0.73;;;;;;;12.80;83.62;99478.91;12204311;19;20014;-77
2023/12/29 13:27:22;;;;;;;1.50;0.80;;;;;;;12.67;85.03;99486.63;12203576;19;20015;-78
2023/12/29 13:31:24;;;;;;;0.93;0.67;;;;;;;12.54;86.16;99492.63;12192589;19;20043;-79
2023/12/29 13:35:36;;;;;;;2.37;0.80;;;;;;;12.63;86.58;99490.19;12195495;19;20902;-78
2023/12/29 13:39:46;;;;;;;2.10;0.90;;;;;;;12.52;87.93;99494.81;12196116;19;20031;-81
2023/12/29 13:43:49;;;;;;;2.05;0.82;;;;;;;12.45;88.68;99495.09;12174489;19;20010;-79
2023/12/29 13:47:52;;;;;;;2.35;0.80;;;;;;;12.34;90.50;99487.00;12196933;19;20090;-77
2023/12/29 13:51:58;;;;;;;1.40;0.60;;;;;;;12.25;91.68;99490.28;12198534;19;20429;-79
2023/12/29 13:56:10;;;;;;;1.38;0.60;;;;;;;12.18;92.60;99484.19;12178102;19;20456;-78
2023/12/29 14:00:24;;;;;;;1.33;0.90;;;;;;;11.97;94.61;99476.91;12201328;19;20061;-78
2023/12/29 14:04:26;;;;;;;1.13;0.60;;;;;;;11.90;95.69;99481.81;12196086;19;20083;-78
2023/12/29 14:08:39;;;;;;;4.47;1.10;;;;;;;11.77;97.41;99483.91;12176401;19;20023;-78
2023/12/29 14:12:41;;;;;;;2.35;0.80;;;;;;;11.89;96.65;99486.50;12206419;19;20006;-77
2023/12/29 14:16:44;;;;;;;2.65;0.85;;;;;;;11.78;97.67;99490.28;12221691;19;19999;-78
2023/12/29 14:20:46;;;;;;;2.50;1.10;;;;;;;11.77;97.79;99494.94;12203843;19;20030;-78
2023/12/29 14:25:03;;;;;;;1.33;0.88;;;;;;;11.91;96.37;99489.00;12199465;19;20018;-77
2023/12/29 14:29:08;;;;;;;2.22;1.15;;;;;;;11.86;96.86;99498.91;12177063;19;20011;-76
2023/12/29 14:33:11;;;;;;;1.00;0.52;;;;;;;11.73;97.14;99485.53;12202753;19;20050;-77
2023/12/29 14:37:12;;;;;;;1.85;0.90;;;;;;;11.77;96.81;99492.19;12193069;19;20079;-77
2023/12/29 14:41:14;;;;;;;3.35;1.25;;;;;;;11.72;96.83;99500.44;12177641;19;20006;-77
2023/12/29 14:45:16;;;;;;;3.58;0.93;;;;;;;11.62;97.80;99487.38;12195179;19;20014;-77
2023/12/29 14:49:18;;;;;;;0.85;0.80;;;;;;;11.54;98.39;99495.31;12197193;19;20373;-78
2023/12/29 14:53:20;;;;;;;3.45;1.17;;;;;;;11.54;98.37;99487.03;12174064;19;20018;-77
2023/12/29 14:57:21;;;;;;;2.15;1.10;;;;;;;11.54;97.85;99476.00;12203082;19;20015;-76
2023/12/29 15:01:23;;;;;;;2.33;0.85;;;;;;;11.53;98.06;99482.63;12204433;19;20375;-76
2023/12/29 15:05:25;;;;;;;2.17;1.07;;;;;;;11.46;98.67;99476.50;12177359;19;20668;-75
2023/12/29 15:09:27;;;;;;;3.28;1.42;;;;;;;11.45;98.54;99472.94;12204221;19;20456;-77
2023/12/29 15:13:30;;;;;;;1.45;0.90;;;;;;;11.41;98.35;99467.09;12185168;19;20011;-77
2023/12/29 15:17:31;;;;;;;2.03;0.70;;;;;;;11.31;97.17;99461.50;12200723;19;20318;-78
2023/12/29 15:21:33;;;;;;;3.53;0.60;;;;;;;11.29;96.30;99458.16;12199938;19;20014;-78
2023/12/29 15:25:36;;;;;;;2.00;0.80;;;;;;;11.17;97.01;99472.13;12174367;19;20363;-76
2023/12/29 15:29:38;;;;;;;3.08;0.98;;;;;;;11.13;97.08;99478.44;12200637;19;20011;-76
2023/12/29 15:33:40;;;;;;;3.13;0.90;;;;;;;11.10;97.25;99468.75;12199357;19;20023;-77
2023/12/29 15:37:42;;;;;;;2.58;0.90;;;;;;;11.08;98.16;99475.63;12175961;19;20027;-77
2023/12/29 15:41:43;;;;;;;1.67;0.70;;;;;;;11.12;97.28;99471.25;12198711;19;20137;-76
2023/12/29 15:45:45;;;;;;;0.97;0.70;;;;;;;11.12;96.98;99474.00;12200337;19;20051;-76
2023/12/29 15:49:47;;;;;;;2.33;0.60;;;;;;;11.15;95.93;99473.47;12176416;19;20019;-76
2023/12/29 15:53:49;;;;;;;2.23;0.90;;;;;;;11.18;94.80;99459.16;12202175;19;20014;-77
2023/12/29 15:57:51;;;;;;;2.17;0.90;;;;;;;11.17;95.16;99468.53;12193689;19;20023;-76
2023/12/29 16:01:53;;;;;;;3.27;0.77;;;;;;;11.16;94.78;99451.16;12173464;19;20402;-76
2023/12/29 16:05:55;;;;;;;1.40;0.45;;;;;;;11.05;95.43;99443.91;12194148;19;20007;-76
2023/12/29 16:09:57;;;;;;;2.83;0.70;;;;;;;10.93;96.26;99438.53;12200279;19;20343;-77
2023/12/29 16:13:59;;;;;;;2.38;0.80;;;;;;;10.90;96.34;99439.06;12175780;19;20014;-77
2023/12/29 16:18:01;;;;;;;3.33;0.90;;;;;;;10.83;96.69;99434.88;12196033;19;20021;-77
2023/12/29 16:22:03;;;;;;;3.50;0.65;;;;;;;10.70;97.60;99434.19;12207031;19;20011;-76
2023/12/29 16:26:08;;;;;;;4.25;0.90;;;;;;;10.75;97.29;99447.19;12181492;19;20006;-76
2023/12/29 16:30:11;;;;;;;4.18;1.25;;;;;;;10.80;97.02;99447.25;12202445;19;20003;-77
2023/12/29 16:34:13;;;;;;;5.03;1.60;;;;;;;10.82;97.04;99442.28;12199198;19;20787;-77
2023/12/29 16:38:15;;;;;;;2.22;1.17;;;;;;;10.87;96.61;99445.09;12170588;19;20122;-76
2023/12/29 16:42:17;;;;;;;2.70;0.90;;;;;;;10.80;97.45;99444.50;12193108;19;20062;-76
2023/12/29 16:46:19;;;;;;;2.13;0.95;;;;;;;10.87;96.71;99431.31;12194382;19;20014;-77
2023/12/29 16:50:21;;;;;;;1.00;0.77;;;;;;;10.84;96.89;99437.34;12171632;19;20007;-75
2023/12/29 16:54:23;;;;;;;2.95;1.10;;;;;;;10.78;97.20;99432.88;12196459;19;20050;-76
2023/12/29 16:58:24;;;;;;;2.58;0.98;;;;;;;10.78;96.96;99441.16;12191344;19;20003;-77
2023/12/29 17:02:26;;;;;;;3.33;0.87;;;;;;;10.69;97.34;99427.00;12195895;19;22045;-76
2023/12/29 17:06:28;;;;;;;2.83;0.90;;;;;;;10.57;98.31;99431.03;12193400;19;20010;-77
2023/12/29 17:10:30;;;;;;;4.57;1.10;;;;;;;10.47;98.62;99424.31;12173493;19;20035;-77
2023/12/29 17:14:32;;;;;;;4.95;1.20;;;;;;;10.53;98.13;99427.09;12192625;19;20014;-77
2023/12/29 17:18:34;;;;;;;6.07;1.17;;;;;;;10.44;98.42;99433.09;12192081;19;20010;-76
2023/12/29 17:22:36;;;;;;;4.10;1.75;;;;;;;10.51;97.88;99432.88;12169885;19;20021;-77
2023/12/29 17:26:37;;;;;;;1.52;0.90;;;;;;;10.56;97.44;99430.19;12188209;19;20082;-75
2023/12/29 17:30:39;;;;;;;3.22;0.80;;;;;;;10.64;96.88;99429.72;12193496;19;20002;-77
2023/12/29 17:34:41;;;;;;;2.35;1.10;;;;;;;10.69;96.20;99434.44;12167146;19;20039;-76
2023/12/29 17:38:44;;;;;;;3.10;0.95;;;;;;;10.66;96.13;99435.78;12191527;19;20419;-78
2023/12/29 17:42:45;;;;;;;1.35;0.70;;;;;;;10.71;95.66;99435.03;12192830;19;20010;-75
2023/12/29 17:46:47;;;;;;;1.98;0.80;;;;;;;10.70;95.43;99444.38;12171142;19;20017;-75
2023/12/29 17:50:49;;;;;;;2.88;1.02;;;;;;;10.73;94.93;99441.09;12191166;19;20358;-76
2023/12/29 17:54:51;;;;;;;4.57;1.23;;;;;;;10.77;94.77;99428.47;12192568;19;20022;-76
2023/12/29 17:58:53;;;;;;;2.30;1.27;;;;;;;10.75;94.47;99433.41;12165095;19;20003;-76
2023/12/29 18:02:55;;;;;;;3.47;1.15;;;;;;;10.77;94.18;99436.75;12191714;19;20014;-76
2023/12/29 18:06:57;;;;;;;2.33;0.98;;;;;;;10.68;94.76;99435.56;12187982;19;20010;-76
2023/12/29 18:11:08;;;;;;;2.63;0.90;;;;;;;10.67;94.99;99429.19;12170954;19;20350;-77
2023/12/29 18:15:14;;;;;;;3.08;1.02;;;;;;;10.58;95.60;99433.50;12189720;19;20006;-76
2023/12/29 18:19:22;;;;;;;5.20;1.48;;;;;;;10.57;95.64;99420.00;12189707;19;20011;-77
2023/12/29 18:23:25;;;;;;;2.42;0.90;;;;;;;10.53;95.85;99421.59;12167431;19;20027;-76
2023/12/29 18:27:32;;;;;;;3.67;1.08;;;;;;;10.59;95.29;99413.16;12186613;19;20015;-77
2023/12/29 18:31:41;;;;;;;4.03;0.90;;;;;;;10.63;94.79;99429.97;12185720;19;19999;-77
2023/12/29 18:35:43;;;;;;;2.20;1.10;;;;;;;10.68;94.50;99433.63;12203267;19;20030;-77
2023/12/29 18:39:47;;;;;;;2.55;1.30;;;;;;;10.71;94.24;99432.28;12202598;19;20014;-77
2023/12/29 18:43:50;;;;;;;2.20;1.00;;;;;;;10.77;94.21;99438.66;12180525;19;20011;-76
2023/12/29 18:47:52;;;;;;;3.13;0.82;;;;;;;10.83;93.18;99438.47;12200161;19;20015;-77
2023/12/29 18:51:55;;;;;;;2.20;1.30;;;;;;;10.87;92.77;99456.13;12203777;19;20010;-77